Time;durP1;ratioP1;P1;durP2;ratioP2;P2;SDS_P1;SDS_P2;PMS_P1;PMS_P2;Temp;Humidity;BMP_temperature;BMP_pressure;BME280_temperature;BME280_humidity;BME280_pressure;Samples;Min_cycle;Max_cycle;Signal;HPM_P1;HPM_P2
2023/11/11 00:00:47;;;;;;;58.30;26.00;;;8.10;99.90;;;;;;5082140;28;20442;-77
2023/11/11 00:03:13;;;;;;;55.97;24.17;;;8.00;99.90;;;;;;5084103;28;20031;-77
2023/11/11 00:05:39;;;;;;;57.00;25.60;;;8.10;99.90;;;;;;5081960;28;20040;-77
2023/11/11 00:08:04;;;;;;;57.15;26.73;;;8.20;99.90;;;;;;5084491;28;20017;-77
2023/11/11 00:10:30;;;;;;;59.05;26.00;;;8.10;99.90;;;;;;5082847;28;20021;-77
2023/11/11 00:12:55;;;;;;;67.43;26.92;;;8.10;99.90;;;;;;5083716;28;20032;-75
2023/11/11 00:15:21;;;;;;;58.22;25.50;;;8.10;99.90;;;;;;5082733;28;20020;-77
2023/11/11 00:17:47;;;;;;;61.90;26.27;;;8.10;99.90;;;;;;5082609;28;20032;-79
2023/11/11 00:20:13;;;;;;;56.95;25.48;;;8.00;99.90;;;;;;5081947;28;20056;-76
2023/11/11 00:22:46;;;;;;;61.47;26.73;;;8.10;99.90;;;;;;5084076;28;20029;-76
2023/11/11 00:25:12;;;;;;;62.05;26.60;;;8.20;99.90;;;;;;5083432;28;20024;-77
2023/11/11 00:27:42;;;;;;;60.58;26.02;;;8.10;99.90;;;;;;5081371;28;20020;-79
2023/11/11 00:30:13;;;;;;;64.00;26.13;;;8.20;99.90;;;;;;5082124;28;20032;-75
2023/11/11 00:32:39;;;;;;;64.13;26.75;;;8.10;99.90;;;;;;5083212;28;20055;-78
2023/11/11 00:35:08;;;;;;;65.22;27.40;;;8.00;99.90;;;;;;5083580;28;20070;-77
2023/11/11 00:37:34;;;;;;;64.45;26.20;;;8.10;99.90;;;;;;5082293;28;20090;-77
2023/11/11 00:40:00;;;;;;;66.18;26.60;;;8.10;99.90;;;;;;5082183;28;20119;-77
2023/11/11 00:42:25;;;;;;;63.80;26.05;;;8.20;99.90;;;;;;5081864;28;20020;-77
2023/11/11 00:44:51;;;;;;;64.63;26.63;;;8.10;99.90;;;;;;5083282;28;20093;-77
2023/11/11 00:47:17;;;;;;;62.17;27.38;;;8.10;99.90;;;;;;5081708;28;20066;-78
2023/11/11 00:49:44;;;;;;;70.18;27.77;;;8.10;99.90;;;;;;5083276;28;20033;-77
2023/11/11 00:52:09;;;;;;;67.45;26.25;;;8.00;99.90;;;;;;5081586;28;20021;-78
2023/11/11 00:54:38;;;;;;;60.85;26.67;;;8.20;99.90;;;;;;5083022;28;20035;-79
2023/11/11 00:57:04;;;;;;;64.93;26.88;;;8.10;99.90;;;;;;5081179;28;20020;-77
2023/11/11 00:59:30;;;;;;;57.50;26.52;;;8.10;99.90;;;;;;5083260;28;20028;-76
2023/11/11 01:02:00;;;;;;;65.15;27.13;;;8.10;99.90;;;;;;5082203;28;20075;-79
2023/11/11 01:04:29;;;;;;;64.03;26.88;;;8.10;99.90;;;;;;5081302;28;20032;-79
2023/11/11 01:07:02;;;;;;;59.95;26.42;;;8.20;99.90;;;;;;5081613;28;20032;-79
2023/11/11 01:09:28;;;;;;;67.13;26.70;;;8.10;99.90;;;;;;5081186;28;20071;-80
2023/11/11 01:11:54;;;;;;;66.43;26.40;;;8.10;99.90;;;;;;5081244;28;20481;-77
2023/11/11 01:14:22;;;;;;;64.88;28.00;;;8.10;99.90;;;;;;5082748;28;20029;-79
2023/11/11 01:16:48;;;;;;;65.07;27.02;;;8.10;99.90;;;;;;5082986;28;20028;-78
2023/11/11 01:19:14;;;;;;;68.45;27.58;;;8.10;99.90;;;;;;5082938;28;20044;-77
2023/11/11 01:21:39;;;;;;;65.20;27.15;;;8.10;99.90;;;;;;5081042;28;20036;-78
2023/11/11 01:24:05;;;;;;;61.33;27.40;;;8.20;99.90;;;;;;5082866;28;20029;-79
2023/11/11 01:26:31;;;;;;;63.22;27.05;;;8.10;99.90;;;;;;5080874;28;20054;-79
2023/11/11 01:28:57;;;;;;;62.55;26.95;;;8.10;99.90;;;;;;5082709;28;20029;-79
2023/11/11 01:31:25;;;;;;;67.40;27.77;;;8.10;99.90;;;;;;5082478;28;20024;-79
2023/11/11 01:33:51;;;;;;;68.55;27.30;;;8.10;99.90;;;;;;5082167;28;20449;-79
2023/11/11 01:36:17;;;;;;;63.83;27.80;;;8.20;99.90;;;;;;5080908;28;20041;-79
2023/11/11 01:38:42;;;;;;;67.45;27.58;;;8.10;99.90;;;;;;5082186;28;20066;-80
2023/11/11 01:41:08;;;;;;;70.68;29.17;;;8.10;99.90;;;;;;5081020;28;20075;-79
2023/11/11 01:43:34;;;;;;;70.00;29.05;;;8.20;99.90;;;;;;5082126;28;20027;-78
2023/11/11 01:46:01;;;;;;;64.10;28.10;;;8.20;99.90;;;;;;5081096;28;20028;-78
2023/11/11 01:48:31;;;;;;;69.28;28.35;;;8.20;99.90;;;;;;5081616;28;20056;-78
2023/11/11 01:50:57;;;;;;;71.20;29.92;;;8.10;99.90;;;;;;5080098;28;20641;-75
2023/11/11 01:53:24;;;;;;;65.80;28.77;;;8.20;99.90;;;;;;5081322;28;20035;-77
2023/11/11 01:55:50;;;;;;;64.78;27.98;;;8.20;99.90;;;;;;5080683;28;20073;-77
2023/11/11 01:58:17;;;;;;;65.15;27.48;;;8.20;99.90;;;;;;5080163;28;20041;-76
2023/11/11 02:00:43;;;;;;;62.33;26.23;;;8.30;99.90;;;;;;5080425;28;20032;-77
2023/11/11 02:03:11;;;;;;;66.35;28.30;;;8.20;99.90;;;;;;5081083;28;20028;-79
2023/11/11 02:05:36;;;;;;;65.50;28.10;;;8.20;99.90;;;;;;5080142;28;20016;-80
2023/11/11 02:08:05;;;;;;;73.30;29.98;;;8.20;99.90;;;;;;5080711;28;20178;-79
2023/11/11 02:10:32;;;;;;;68.57;28.65;;;8.20;99.90;;;;;;5081555;28;20044;-77
2023/11/11 02:12:59;;;;;;;68.28;27.83;;;8.20;99.90;;;;;;5080313;28;20024;-77
2023/11/11 02:15:26;;;;;;;72.10;28.35;;;8.10;99.90;;;;;;5081489;28;20039;-76
2023/11/11 02:18:00;;;;;;;71.57;28.65;;;8.10;99.90;;;;;;5080071;28;20016;-77
2023/11/11 02:20:26;;;;;;;69.00;30.05;;;8.10;99.90;;;;;;5079909;28;20040;-77
2023/11/11 02:22:52;;;;;;;73.50;29.10;;;8.10;99.90;;;;;;5080963;28;20029;-76
2023/11/11 02:25:18;;;;;;;66.43;29.13;;;8.10;99.90;;;;;;5081126;28;20044;-77
2023/11/11 02:27:44;;;;;;;68.93;29.63;;;8.20;99.90;;;;;;5079831;28;20017;-77
2023/11/11 02:30:12;;;;;;;76.93;30.42;;;8.10;99.90;;;;;;5079572;28;20096;-77
2023/11/11 02:32:38;;;;;;;74.88;29.23;;;8.10;99.90;;;;;;5079676;28;20096;-75
2023/11/11 02:35:04;;;;;;;71.80;28.60;;;8.10;99.90;;;;;;5081058;28;20131;-75
2023/11/11 02:37:30;;;;;;;70.00;29.23;;;8.10;99.90;;;;;;5080015;28;20024;-74
2023/11/11 02:39:56;;;;;;;77.80;30.00;;;8.20;99.90;;;;;;5080750;28;20162;-74
2023/11/11 02:42:21;;;;;;;78.25;30.13;;;8.10;99.90;;;;;;5079837;28;20050;-78
2023/11/11 02:44:47;;;;;;;68.68;29.50;;;8.10;99.90;;;;;;5080678;28;20454;-78
2023/11/11 02:47:13;;;;;;;72.60;29.85;;;8.10;99.90;;;;;;5079590;28;20021;-77
2023/11/11 02:49:38;;;;;;;73.63;29.92;;;8.10;99.90;;;;;;5079620;28;20058;-78
2023/11/11 02:52:04;;;;;;;77.28;31.25;;;8.00;99.90;;;;;;5080731;28;20073;-79
2023/11/11 02:54:30;;;;;;;69.57;27.00;;;8.10;99.90;;;;;;5079858;28;20763;-79
2023/11/11 02:56:55;;;;;;;72.72;28.17;;;8.20;99.90;;;;;;5080734;28;20101;-79
2023/11/11 02:59:21;;;;;;;73.88;29.30;;;8.20;99.90;;;;;;5079504;28;20025;-80
2023/11/11 03:01:46;;;;;;;72.22;28.95;;;8.20;99.90;;;;;;5080587;28;20032;-79
2023/11/11 03:04:12;;;;;;;71.78;30.10;;;8.20;99.90;;;;;;5079620;28;20423;-78
2023/11/11 03:06:46;;;;;;;72.60;26.15;;;8.10;99.90;;;;;;5080724;28;20028;-80
2023/11/11 03:09:12;;;;;;;72.45;27.85;;;8.10;99.90;;;;;;5079727;28;20050;-79
2023/11/11 03:11:38;;;;;;;65.50;27.25;;;8.20;99.90;;;;;;5080845;28;20040;-79
2023/11/11 03:14:04;;;;;;;71.93;26.30;;;8.10;99.90;;;;;;5080107;28;20024;-77
2023/11/11 03:16:39;;;;;;;65.10;26.42;;;8.10;99.90;;;;;;5080961;28;20044;-79
2023/11/11 03:19:06;;;;;;;66.78;24.67;;;8.10;99.90;;;;;;5080592;28;20114;-78
2023/11/11 03:21:32;;;;;;;64.43;27.75;;;8.10;99.90;;;;;;5079074;28;20036;-78
2023/11/11 03:23:58;;;;;;;74.95;28.88;;;8.10;99.90;;;;;;5079265;28;20025;-80
2023/11/11 03:26:24;;;;;;;68.20;27.17;;;8.10;99.90;;;;;;5078788;28;20077;-78
2023/11/11 03:28:50;;;;;;;68.82;27.98;;;8.10;99.90;;;;;;5080483;28;20025;-78
2023/11/11 03:31:19;;;;;;;66.53;26.50;;;8.10;99.90;;;;;;5079268;28;20044;-78
2023/11/11 03:33:47;;;;;;;67.88;27.30;;;8.10;99.90;;;;;;5079724;28;20424;-78
2023/11/11 03:36:13;;;;;;;59.75;24.48;;;8.10;99.90;;;;;;5080094;28;20084;-78
2023/11/11 03:38:39;;;;;;;61.65;26.80;;;8.10;99.90;;;;;;5080364;28;20071;-79
2023/11/11 03:41:05;;;;;;;67.15;24.83;;;8.00;99.90;;;;;;5078997;28;20032;-76
2023/11/11 03:43:31;;;;;;;62.17;25.65;;;8.10;99.90;;;;;;5080234;28;20091;-77
2023/11/11 03:45:57;;;;;;;61.70;25.45;;;8.10;99.90;;;;;;5080406;28;20028;-77
2023/11/11 03:48:24;;;;;;;65.60;25.55;;;8.10;99.90;;;;;;5079990;28;20020;-78
2023/11/11 03:50:49;;;;;;;62.08;25.55;;;8.10;99.90;;;;;;5079030;28;20020;-79
2023/11/11 03:53:15;;;;;;;66.03;26.73;;;8.10;99.90;;;;;;5078859;28;20472;-79
2023/11/11 03:55:40;;;;;;;62.95;25.02;;;8.10;99.90;;;;;;5080066;28;20055;-78
2023/11/11 03:58:07;;;;;;;64.18;23.63;;;8.10;99.90;;;;;;5079237;28;20049;-74
2023/11/11 04:00:33;;;;;;;57.50;24.50;;;8.10;99.90;;;;;;5078643;28;20123;-79
2023/11/11 04:02:58;;;;;;;63.88;25.50;;;8.10;99.90;;;;;;5079881;28;20389;-79
2023/11/11 04:05:24;;;;;;;63.85;26.33;;;8.10;99.90;;;;;;5080385;28;20040;-78
2023/11/11 04:07:49;;;;;;;59.05;24.15;;;8.10;99.90;;;;;;5076886;28;20496;-80
2023/11/11 04:10:17;;;;;;;64.95;26.63;;;8.00;99.90;;;;;;5078272;28;20052;-79
2023/11/11 04:12:46;;;;;;;64.88;25.48;;;8.10;99.90;;;;;;5077854;28;20028;-80
2023/11/11 04:15:12;;;;;;;65.82;25.55;;;8.00;99.90;;;;;;5078713;28;20020;-79
2023/11/11 04:17:44;;;;;;;65.15;26.20;;;8.00;99.90;;;;;;5078361;28;20126;-79
2023/11/11 04:20:11;;;;;;;60.78;24.98;;;8.10;99.90;;;;;;5078398;28;20044;-80
2023/11/11 04:22:38;;;;;;;65.78;25.75;;;8.10;99.90;;;;;;5079378;28;20493;-79
2023/11/11 04:25:05;;;;;;;62.92;25.25;;;8.10;99.90;;;;;;5078173;28;20384;-81
2023/11/11 04:27:35;;;;;;;65.40;25.75;;;8.00;99.90;;;;;;5081280;28;20077;-79
2023/11/11 04:30:03;;;;;;;64.05;25.92;;;8.00;99.90;;;;;;5082695;28;20434;-78
2023/11/11 04:32:29;;;;;;;63.05;26.20;;;7.90;99.90;;;;;;5081559;28;20020;-79
2023/11/11 04:34:55;;;;;;;62.40;25.52;;;8.00;99.90;;;;;;5081927;28;20078;-79
2023/11/11 04:37:21;;;;;;;62.33;23.92;;;8.00;99.90;;;;;;5081274;28;20024;-75
2023/11/11 04:39:46;;;;;;;59.35;24.27;;;8.00;99.90;;;;;;5083175;28;20025;-79
2023/11/11 04:42:16;;;;;;;61.35;24.65;;;8.00;99.90;;;;;;5081484;28;20424;-80
2023/11/11 04:44:45;;;;;;;66.40;25.20;;;8.00;99.90;;;;;;5080506;28;20024;-79
2023/11/11 04:47:10;;;;;;;59.13;24.85;;;8.00;99.90;;;;;;5081430;28;20051;-79
2023/11/11 04:49:39;;;;;;;57.97;23.23;;;8.00;99.90;;;;;;5081153;28;20028;-80
2023/11/11 04:52:06;;;;;;;58.22;24.27;;;8.00;99.90;;;;;;5081306;28;20047;-78
2023/11/11 04:54:32;;;;;;;63.40;24.83;;;8.00;99.90;;;;;;5083175;28;20071;-80
2023/11/11 04:56:59;;;;;;;63.47;24.10;;;7.90;99.90;;;;;;5081552;28;20071;-81
2023/11/11 04:59:29;;;;;;;63.63;25.48;;;7.90;99.90;;;;;;5079282;28;20808;-79
2023/11/11 05:01:55;;;;;;;64.07;24.40;;;7.90;99.90;;;;;;5080858;28;20074;-80
2023/11/11 05:04:24;;;;;;;63.13;23.20;;;8.00;99.90;;;;;;5081323;28;20062;-81
2023/11/11 05:06:50;;;;;;;64.28;24.38;;;7.90;99.90;;;;;;5082665;28;20054;-79
2023/11/11 05:09:16;;;;;;;70.78;24.25;;;7.90;99.90;;;;;;5079314;28;20037;-77
2023/11/11 05:11:45;;;;;;;60.47;24.27;;;7.90;99.90;;;;;;5080716;28;20404;-80
2023/11/11 05:14:13;;;;;;;60.17;23.90;;;7.90;99.90;;;;;;5073974;28;20093;-80
2023/11/11 05:16:44;;;;;;;56.15;22.20;;;7.90;99.90;;;;;;5073411;28;20032;-82
2023/11/11 05:19:12;;;;;;;53.40;22.98;;;7.90;99.90;;;;;;5081129;28;20031;-81
2023/11/11 05:21:38;;;;;;;53.63;21.60;;;7.90;99.90;;;;;;5082127;28;20508;-80
2023/11/11 05:24:05;;;;;;;57.67;23.75;;;7.90;99.90;;;;;;5079716;28;20060;-80
2023/11/11 05:26:31;;;;;;;56.05;22.42;;;7.80;99.90;;;;;;5073788;28;20033;-81
2023/11/11 05:28:57;;;;;;;60.33;23.73;;;7.80;99.90;;;;;;5072488;28;20027;-80
2023/11/11 05:31:23;;;;;;;56.20;22.77;;;7.90;99.90;;;;;;5073566;28;20039;-81
2023/11/11 05:33:52;;;;;;;61.67;22.40;;;7.70;99.90;;;;;;5075820;28;20020;-82
2023/11/11 05:36:19;;;;;;;53.10;21.98;;;7.80;99.90;;;;;;5080515;28;20032;-82
2023/11/11 05:38:48;;;;;;;55.58;20.50;;;7.80;99.90;;;;;;5077144;28;20054;-83
2023/11/11 05:41:14;;;;;;;52.65;20.55;;;7.80;99.90;;;;;;5081151;28;20066;-78
2023/11/11 05:43:40;;;;;;;54.47;19.88;;;7.70;99.90;;;;;;5077517;28;20115;-81
2023/11/11 05:46:09;;;;;;;46.85;19.52;;;7.70;99.90;;;;;;5073651;28;20048;-81
2023/11/11 05:48:38;;;;;;;48.88;19.95;;;7.70;99.90;;;;;;5076938;28;20562;-81
2023/11/11 05:51:04;;;;;;;54.47;19.73;;;7.70;99.90;;;;;;5081928;28;20037;-81
2023/11/11 05:53:32;;;;;;;48.47;17.92;;;7.70;99.90;;;;;;5081862;28;20610;-78
2023/11/11 05:55:58;;;;;;;50.55;18.98;;;7.70;99.90;;;;;;5080437;28;20025;-80
2023/11/11 05:58:23;;;;;;;47.25;18.88;;;7.70;99.90;;;;;;5081210;28;20072;-82
2023/11/11 06:00:49;;;;;;;46.92;18.63;;;7.70;99.90;;;;;;5076619;28;20036;-81
2023/11/11 06:03:14;;;;;;;42.63;17.65;;;7.60;99.90;;;;;;5080332;28;20036;-81
2023/11/11 06:05:40;;;;;;;37.85;16.77;;;7.60;99.90;;;;;;5078779;28;20024;-82
2023/11/11 06:08:09;;;;;;;44.95;17.98;;;7.70;99.90;;;;;;5081675;28;20023;-81
2023/11/11 06:10:36;;;;;;;39.83;17.23;;;7.70;99.90;;;;;;5080983;28;20017;-83
2023/11/11 06:13:05;;;;;;;41.28;16.17;;;7.60;99.90;;;;;;5080645;28;20090;-82
2023/11/11 06:15:31;;;;;;;41.22;16.42;;;7.60;99.90;;;;;;5080222;28;20044;-80
2023/11/11 06:17:57;;;;;;;42.28;17.85;;;7.60;99.90;;;;;;5080006;28;20041;-80
2023/11/11 06:20:23;;;;;;;41.30;15.93;;;7.60;99.90;;;;;;5079789;28;20150;-83
2023/11/11 06:22:52;;;;;;;39.95;15.60;;;7.70;99.90;;;;;;5078964;28;20036;-82
2023/11/11 06:25:19;;;;;;;37.83;14.70;;;7.60;99.90;;;;;;5077403;28;20033;-83
2023/11/11 06:27:45;;;;;;;46.03;15.23;;;7.60;99.90;;;;;;5080600;28;20025;-80
2023/11/11 06:30:12;;;;;;;39.00;14.85;;;7.60;99.90;;;;;;5079576;28;20059;-82
2023/11/11 06:32:38;;;;;;;32.17;13.60;;;7.60;99.90;;;;;;5081060;28;20135;-83
2023/11/11 06:35:08;;;;;;;33.10;12.98;;;7.70;99.90;;;;;;5079592;28;20032;-80
2023/11/11 06:37:33;;;;;;;32.13;13.10;;;7.60;99.90;;;;;;5079547;28;21354;-81
2023/11/11 06:39:59;;;;;;;24.67;11.40;;;7.50;99.90;;;;;;5081144;28;20060;-78
2023/11/11 06:42:24;;;;;;;36.13;11.57;;;7.50;99.90;;;;;;5079469;28;20024;-80
2023/11/11 06:44:50;;;;;;;29.00;11.07;;;7.50;99.90;;;;;;5080669;28;20029;-79
2023/11/11 06:47:16;;;;;;;22.85;10.02;;;7.50;99.90;;;;;;5081019;28;20017;-77
2023/11/11 06:49:41;;;;;;;23.90;9.55;;;7.50;99.90;;;;;;5080544;28;20029;-78
2023/11/11 06:52:07;;;;;;;22.15;9.43;;;7.60;99.90;;;;;;5080285;28;20024;-78
2023/11/11 06:54:32;;;;;;;22.38;9.13;;;7.40;99.90;;;;;;5079826;28;20483;-79
2023/11/11 06:56:58;;;;;;;20.67;8.40;;;7.40;99.90;;;;;;5080366;28;20025;-79
2023/11/11 06:59:24;;;;;;;22.20;8.50;;;7.50;99.90;;;;;;5081060;28;20123;-80
2023/11/11 07:01:49;;;;;;;20.77;8.23;;;7.40;99.90;;;;;;5079197;28;20469;-79
2023/11/11 07:04:15;;;;;;;22.00;7.75;;;7.40;99.90;;;;;;5080250;28;20128;-77
2023/11/11 07:06:41;;;;;;;18.23;7.70;;;7.40;99.90;;;;;;5080656;28;20044;-79
2023/11/11 07:09:07;;;;;;;17.55;6.72;;;7.30;99.90;;;;;;5080963;28;20031;-75
2023/11/11 07:11:33;;;;;;;17.17;6.78;;;7.30;99.90;;;;;;5079604;28;20039;-78
2023/11/11 07:13:58;;;;;;;17.33;6.70;;;7.30;99.90;;;;;;5079079;28;20404;-78
2023/11/11 07:16:26;;;;;;;21.30;6.88;;;7.40;99.90;;;;;;5078307;28;20052;-80
2023/11/11 07:18:51;;;;;;;18.58;5.70;;;7.40;99.90;;;;;;5079273;28;20091;-78
2023/11/11 07:21:22;;;;;;;13.00;4.57;;;7.40;99.90;;;;;;5080518;28;20066;-79
2023/11/11 07:23:48;;;;;;;10.98;4.53;;;7.30;99.90;;;;;;5078951;28;20130;-79
2023/11/11 07:26:16;;;;;;;11.80;4.53;;;7.30;99.90;;;;;;5077353;28;20117;-78
2023/11/11 07:28:43;;;;;;;11.55;4.15;;;7.50;99.90;;;;;;5075853;28;20055;-77
2023/11/11 07:31:09;;;;;;;13.95;4.70;;;7.40;99.90;;;;;;5075705;28;20029;-74
2023/11/11 07:33:34;;;;;;;11.20;3.63;;;7.40;99.90;;;;;;5080136;28;20016;-77
2023/11/11 07:36:00;;;;;;;11.13;4.30;;;7.40;99.90;;;;;;5079078;28;20055;-77
2023/11/11 07:38:26;;;;;;;12.02;4.20;;;7.30;99.90;;;;;;5079866;28;20032;-76
2023/11/11 07:40:51;;;;;;;19.67;6.88;;;7.20;99.90;;;;;;5078427;28;20123;-76
2023/11/11 07:43:17;;;;;;;11.85;5.40;;;7.40;99.90;;;;;;5078855;28;20380;-75
2023/11/11 07:45:43;;;;;;;9.15;3.08;;;7.40;99.90;;;;;;5078354;28;20070;-77
2023/11/11 07:48:08;;;;;;;5.57;3.30;;;7.40;99.90;;;;;;5078520;28;20043;-75
2023/11/11 07:50:35;;;;;;;7.63;2.92;;;7.50;99.90;;;;;;5078983;28;20055;-72
2023/11/11 07:53:00;;;;;;;8.15;3.00;;;7.40;99.90;;;;;;5079312;28;20036;-74
2023/11/11 07:55:26;;;;;;;10.18;2.53;;;7.40;99.90;;;;;;5080280;28;20024;-78
2023/11/11 07:57:52;;;;;;;6.85;2.72;;;7.30;99.90;;;;;;5071830;28;20071;-77
2023/11/11 08:00:19;;;;;;;10.35;2.67;;;7.30;99.90;;;;;;5077199;28;20395;-78
2023/11/11 08:02:45;;;;;;;6.55;2.10;;;7.40;99.90;;;;;;5083276;28;20025;-76
2023/11/11 08:05:11;;;;;;;6.45;1.73;;;7.40;99.90;;;;;;5083233;28;20033;-73
2023/11/11 08:07:37;;;;;;;5.20;1.63;;;7.30;99.90;;;;;;5082979;28;20017;-77
2023/11/11 08:10:06;;;;;;;5.07;1.48;;;7.40;99.90;;;;;;5083751;28;20025;-77
2023/11/11 08:12:31;;;;;;;6.50;1.60;;;7.40;99.90;;;;;;5081846;28;20028;-79
2023/11/11 08:15:00;;;;;;;5.90;1.30;;;7.40;99.90;;;;;;5081110;28;20036;-78
2023/11/11 08:17:26;;;;;;;2.90;1.30;;;7.40;99.90;;;;;;5080923;28;20032;-76
2023/11/11 08:19:53;;;;;;;11.32;1.50;;;7.40;99.90;;;;;;5082508;28;20025;-76
2023/11/11 08:22:19;;;;;;;10.05;1.20;;;7.40;99.90;;;;;;5081232;28;20021;-75
2023/11/11 08:24:44;;;;;;;6.65;1.42;;;7.40;99.90;;;;;;5080507;28;20508;-77
2023/11/11 08:27:11;;;;;;;3.78;1.30;;;7.40;99.90;;;;;;5078382;28;20031;-76
2023/11/11 08:29:37;;;;;;;6.38;1.73;;;7.40;99.90;;;;;;5079466;28;20021;-74
2023/11/11 08:32:02;;;;;;;7.38;1.52;;;7.40;99.90;;;;;;5078275;28;20451;-76
2023/11/11 08:34:31;;;;;;;6.22;1.42;;;7.40;99.90;;;;;;5083127;28;20089;-74
2023/11/11 08:36:59;;;;;;;4.80;1.45;;;7.40;99.90;;;;;;5081835;28;20016;-75
2023/11/11 08:39:25;;;;;;;4.43;1.25;;;7.40;99.90;;;;;;5082765;28;20036;-72
2023/11/11 08:41:52;;;;;;;4.03;1.30;;;7.40;99.90;;;;;;5081373;28;20059;-74
2023/11/11 08:44:18;;;;;;;3.05;1.30;;;7.50;99.90;;;;;;5080776;28;20024;-75
2023/11/11 08:46:43;;;;;;;7.70;1.58;;;7.40;99.90;;;;;;5083399;28;20016;-77
2023/11/11 08:49:09;;;;;;;7.00;1.50;;;7.50;99.90;;;;;;5081309;28;20239;-81
2023/11/11 08:51:35;;;;;;;4.18;2.00;;;7.40;99.90;;;;;;5083601;28;20130;-76
2023/11/11 08:54:00;;;;;;;6.57;1.48;;;7.50;99.90;;;;;;5078728;28;20092;-75
2023/11/11 08:56:28;;;;;;;2.83;1.40;;;7.50;99.90;;;;;;5083032;28;20432;-76
2023/11/11 08:58:55;;;;;;;2.25;1.20;;;7.50;99.90;;;;;;5082649;28;20040;-73
2023/11/11 09:01:21;;;;;;;2.17;1.10;;;7.50;99.90;;;;;;5081283;28;20037;-72
2023/11/11 09:03:49;;;;;;;6.90;1.50;;;7.50;99.90;;;;;;5082790;28;20183;-76
2023/11/11 09:06:17;;;;;;;4.50;1.10;;;7.60;99.90;;;;;;5081824;28;20025;-73
2023/11/11 09:08:43;;;;;;;3.95;1.20;;;7.60;99.90;;;;;;5082979;28;20084;-80
2023/11/11 09:11:11;;;;;;;2.53;1.00;;;7.80;99.90;;;;;;5081618;28;20076;-78
2023/11/11 09:13:38;;;;;;;4.15;1.30;;;7.70;99.90;;;;;;5081925;28;20048;-76
2023/11/11 09:16:04;;;;;;;4.80;1.20;;;7.70;99.90;;;;;;5083303;28;20028;-77
2023/11/11 09:18:31;;;;;;;4.07;1.00;;;7.70;99.90;;;;;;5082223;28;20034;-75
2023/11/11 09:20:57;;;;;;;4.15;1.00;;;7.70;99.90;;;;;;5082688;28;20033;-74
2023/11/11 09:23:23;;;;;;;2.72;1.05;;;7.70;99.90;;;;;;5082864;28;20017;-77
2023/11/11 09:25:49;;;;;;;2.17;1.17;;;7.70;99.90;;;;;;5080786;28;20035;-75
2023/11/11 09:28:15;;;;;;;3.72;1.35;;;7.70;99.90;;;;;;5082850;28;20078;-76
2023/11/11 09:30:40;;;;;;;4.00;1.40;;;7.70;99.90;;;;;;5079922;28;20033;-77
2023/11/11 09:33:06;;;;;;;4.18;1.23;;;7.70;99.90;;;;;;5080672;28;20062;-74
2023/11/11 09:35:32;;;;;;;4.43;1.33;;;7.80;99.90;;;;;;5082862;28;20024;-75
2023/11/11 09:37:57;;;;;;;4.88;1.08;;;7.80;99.90;;;;;;5082676;28;20038;-76
2023/11/11 09:40:23;;;;;;;3.15;1.20;;;7.90;99.90;;;;;;5079613;28;20123;-76
2023/11/11 09:42:49;;;;;;;1.80;1.10;;;7.80;99.90;;;;;;5081013;28;20420;-77
2023/11/11 09:45:14;;;;;;;3.03;1.50;;;7.80;99.90;;;;;;5080630;28;20032;-77
2023/11/11 09:47:42;;;;;;;3.45;1.73;;;8.00;99.90;;;;;;5078222;28;20468;-78
2023/11/11 09:50:12;;;;;;;3.92;1.40;;;7.90;99.90;;;;;;5082194;28;20068;-74
2023/11/11 09:52:38;;;;;;;2.47;1.10;;;7.90;99.90;;;;;;5081005;28;20033;-76
2023/11/11 09:55:05;;;;;;;3.38;1.20;;;7.90;99.90;;;;;;5081608;28;20028;-78
2023/11/11 09:57:33;;;;;;;8.13;3.00;;;7.90;99.90;;;;;;5080252;28;20040;-73
2023/11/11 09:59:59;;;;;;;6.90;2.65;;;7.90;99.90;;;;;;5081915;28;20025;-76
2023/11/11 10:02:26;;;;;;;3.08;1.40;;;7.90;99.90;;;;;;5081997;28;20402;-73
2023/11/11 10:04:55;;;;;;;2.65;1.27;;;7.90;99.90;;;;;;5081852;28;20020;-77
2023/11/11 10:07:24;;;;;;;5.25;1.20;;;7.90;99.90;;;;;;5081317;28;20057;-74
2023/11/11 10:09:53;;;;;;;3.95;1.67;;;7.90;99.90;;;;;;5079699;28;20017;-75
2023/11/11 10:12:18;;;;;;;1.98;1.13;;;8.00;99.90;;;;;;5080490;28;20024;-77
2023/11/11 10:14:44;;;;;;;1.75;0.80;;;8.00;99.90;;;;;;5081614;28;20467;-74
2023/11/11 10:17:13;;;;;;;1.23;0.80;;;8.00;99.90;;;;;;5080315;28;20012;-78
2023/11/11 10:19:43;;;;;;;1.58;0.73;;;8.00;99.90;;;;;;5081558;28;20021;-75
2023/11/11 10:22:09;;;;;;;3.83;1.00;;;8.10;99.90;;;;;;5081492;28;20033;-77
2023/11/11 10:24:35;;;;;;;1.67;0.70;;;8.10;99.90;;;;;;5081146;28;20057;-74
2023/11/11 10:27:02;;;;;;;1.77;1.00;;;8.20;99.90;;;;;;5080488;28;20037;-75
2023/11/11 10:29:34;;;;;;;1.85;0.75;;;8.20;99.90;;;;;;5081113;28;20197;-75
2023/11/11 10:32:07;;;;;;;4.68;1.25;;;8.30;99.90;;;;;;5079468;28;20100;-74
2023/11/11 10:34:33;;;;;;;2.05;0.40;;;8.20;99.90;;;;;;5081912;28;20062;-75
2023/11/11 10:36:58;;;;;;;0.85;0.47;;;8.20;99.90;;;;;;5078084;28;20057;-77
2023/11/11 10:39:24;;;;;;;1.00;0.50;;;8.20;99.90;;;;;;5080693;28;20033;-77
2023/11/11 10:41:50;;;;;;;1.10;0.35;;;8.20;99.90;;;;;;5079006;28;20048;-76
2023/11/11 10:44:16;;;;;;;1.23;0.57;;;8.20;99.90;;;;;;5079685;28;20127;-73
2023/11/11 10:46:42;;;;;;;0.90;0.35;;;8.20;99.90;;;;;;5080392;28;20031;-73
2023/11/11 10:49:10;;;;;;;1.60;0.60;;;8.20;99.90;;;;;;5080394;28;20021;-76
2023/11/11 10:51:36;;;;;;;2.35;0.40;;;8.20;99.90;;;;;;5078941;28;20047;-76
2023/11/11 10:54:05;;;;;;;1.30;0.40;;;8.10;99.90;;;;;;5079301;28;20024;-74
2023/11/11 10:56:33;;;;;;;1.65;0.30;;;8.00;99.90;;;;;;5080051;28;20029;-74
2023/11/11 10:59:05;;;;;;;1.38;0.50;;;8.00;99.90;;;;;;5078595;28;20048;-75
2023/11/11 11:01:35;;;;;;;2.05;0.63;;;7.90;99.90;;;;;;5079544;28;20066;-77
2023/11/11 11:04:03;;;;;;;1.40;0.60;;;7.90;99.90;;;;;;5080467;28;20049;-75
2023/11/11 11:06:38;;;;;;;1.70;0.32;;;7.90;99.90;;;;;;5081145;28;20019;-76
2023/11/11 11:09:18;;;;;;;4.68;0.60;;;7.90;99.90;;;;;;5081029;28;20060;-75
2023/11/11 11:12:10;;;;;;;1.15;0.30;;;7.90;99.90;;;;;;5080210;28;20032;-72
2023/11/11 11:14:39;;;;;;;5.70;0.43;;;7.90;99.90;;;;;;5098235;28;20036;-75
2023/11/11 11:17:08;;;;;;;0.40;0.32;;;7.90;99.90;;;;;;5079248;28;20163;-74
2023/11/11 11:20:14;;;;;;;2.22;0.65;;;7.90;99.90;;;;;;5081013;28;20389;-74
2023/11/11 11:22:42;;;;;;;1.38;0.60;;;7.90;99.90;;;;;;5061333;28;20064;-76
2023/11/11 11:25:44;;;;;;;1.95;0.90;;;8.00;99.90;;;;;;5079541;28;20047;-76
2023/11/11 11:28:15;;;;;;;1.15;0.70;;;8.00;99.90;;;;;;5080687;28;20110;-77
2023/11/11 11:30:50;;;;;;;1.73;1.10;;;8.10;99.90;;;;;;5079105;28;20043;-77
2023/11/11 11:33:21;;;;;;;0.95;0.68;;;8.10;99.90;;;;;;5080143;28;20059;-74
2023/11/11 11:35:53;;;;;;;1.48;0.60;;;8.00;99.90;;;;;;5076246;28;20028;-73
2023/11/11 11:38:25;;;;;;;3.97;1.00;;;8.10;99.90;;;;;;5079839;28;20043;-76
2023/11/11 11:40:52;;;;;;;2.17;0.60;;;8.10;99.90;;;;;;5077738;28;20033;-75
2023/11/11 11:43:29;;;;;;;1.98;1.02;;;8.10;99.90;;;;;;5078870;28;20045;-76
2023/11/11 11:45:57;;;;;;;5.32;1.08;;;8.20;99.90;;;;;;5080039;28;20122;-75
2023/11/11 11:48:27;;;;;;;2.03;0.70;;;8.20;99.90;;;;;;5080392;28;20035;-77
2023/11/11 11:51:02;;;;;;;5.93;0.82;;;8.20;99.90;;;;;;5080651;28;20033;-75
2023/11/11 11:53:28;;;;;;;2.25;0.73;;;8.20;99.90;;;;;;5079861;28;20032;-76
2023/11/11 11:55:53;;;;;;;3.90;1.08;;;8.10;99.90;;;;;;5079227;28;20036;-76
2023/11/11 11:58:19;;;;;;;1.58;1.05;;;8.20;99.90;;;;;;5080177;28;20056;-77
2023/11/11 12:00:45;;;;;;;4.05;1.20;;;8.10;99.90;;;;;;5080033;28;20039;-76
2023/11/11 12:03:11;;;;;;;4.35;1.38;;;8.20;99.90;;;;;;5080577;28;20024;-75
2023/11/11 12:05:37;;;;;;;2.03;1.02;;;8.20;99.90;;;;;;5080304;28;20071;-75
2023/11/11 12:08:04;;;;;;;1.50;0.85;;;8.20;99.90;;;;;;5079723;28;20028;-73
2023/11/11 12:10:47;;;;;;;2.58;1.08;;;8.20;99.90;;;;;;5080208;28;20040;-77
2023/11/11 12:13:13;;;;;;;2.83;1.27;;;8.10;99.90;;;;;;5080037;28;20037;-77
2023/11/11 12:15:48;;;;;;;3.55;1.30;;;8.10;99.90;;;;;;5080721;28;20526;-76
2023/11/11 12:18:14;;;;;;;1.88;0.90;;;8.10;99.90;;;;;;5080570;28;20036;-74
2023/11/11 12:20:41;;;;;;;1.55;0.90;;;8.10;99.90;;;;;;5077965;28;20029;-76
2023/11/11 12:23:12;;;;;;;3.13;1.00;;;8.20;99.90;;;;;;5078769;28;20161;-76
2023/11/11 12:25:41;;;;;;;3.88;1.50;;;8.20;99.90;;;;;;5079807;28;20024;-77
2023/11/11 12:28:07;;;;;;;8.60;1.60;;;8.20;99.90;;;;;;5077796;28;20029;-76
2023/11/11 12:30:33;;;;;;;5.15;1.40;;;8.10;99.90;;;;;;5080248;28;20025;-78
2023/11/11 12:33:08;;;;;;;2.00;0.80;;;8.20;99.90;;;;;;5078354;28;20112;-74
2023/11/11 12:35:40;;;;;;;3.60;1.17;;;8.30;99.90;;;;;;5079668;28;20083;-73
2023/11/11 12:38:25;;;;;;;2.63;1.42;;;8.20;99.90;;;;;;5078109;28;20027;-74
2023/11/11 12:40:52;;;;;;;3.55;1.42;;;8.20;99.90;;;;;;5078403;28;20044;-74
2023/11/11 12:43:22;;;;;;;3.03;1.45;;;8.30;99.90;;;;;;5077324;28;20024;-74
2023/11/11 12:45:52;;;;;;;3.17;1.15;;;8.20;99.90;;;;;;5077791;28;20021;-74